Follett, TX (79034)

1:21 AM CST on December 27, 2014 (GMT -0600)
Barnes - Farm | Change Station
CLOSE
Current Station
Personal Weather Station
Location: Gage, OK
Elevation: 2220 ft
Nearby Weather Stations

Elev 2220 ft 36.28 °N, 99.80 °W | Updated 7 seconds ago

Overcast
Overcast
28.0 °F
Feels Like 21 °F
N
7.0
Wind Variable Wind from NNW
Gusts 14.0 mph

Today
High -- | Low -- °F
--% Chance of Precip.
Yesterday
High -- | Low -- °F
Precip. -- in
7:51 AM 5:32 PM
Waxing Crescent, 33% visible
Pressure 30.21 in
Visibility 10.0 miles
Clouds Overcast 11000 ft
Windchill 21 °F
Dew Point 24 °F
Humidity 84%
Rainfall 0.00 in
Snow Depth Not available.
UV 0.0 out of 12
Pollen .10 out of 12
Air Quality Not available.
Flu Activity Not available.
METAR KGAG 270653Z AUTO 35011KT 10SM OVC110 M03/M06 A3016 RMK AO2 SLP228 T10281056

More Conditions Fewer Conditions

Pressure 30.21 in
Visibility 10.0 miles
Clouds Overcast 11000 ft
Windchill 21 °F
Dew Point 24 °F
Humidity 84%
Rainfall 0.00 in
Snow Depth Not available.
UV 0.0 out of 12
Pollen .10 out of 12
Air Quality Not available.
Flu Activity Not available.
METAR KGAG 270653Z AUTO 35011KT 10SM OVC110 M03/M06 A3016 RMK AO2 SLP228 T10281056

More Conditions Fewer Conditions

Nowcast | as of 12:35 am CST on December 27, 2014

An area of light rain...mixed with sleet and light snow over the southeast Texas Panhandle will continue moving northeast at 45 mph through 3 am. Most of the precipitation should remain south and east of a line extending from New Mobeetie to Clarendon. Any snowfall accumulations should remain less than one half of an inch.

×

10-Day Weather Forecast

Almanac

Astronomy

Dec. 27, 2014 Rise Set
Actual Time
Civil Twilight
Nautical Twilight
Astronomical Twilight
Moon
Length of Visible Light
Length of Day
Tomorrow will be .
, % of the Moon is Illuminated

Today's Extremes

State Highs State Lows

Community

WunderPhotos

Upload Photos

1,780,863 photos uploaded!

WunderBlogs® & News

Nearby

Air Quality

  Air Quality AQ Index Pollutant
Not available.

Snow Depth

Station Depth Elevation

Earthquake Activity

City Distance Mag. Time & Date
Minimum magnitude displayed is 2.5.

Coastal Water Temperatures

Place Temperature

Nearby Weather Stations